Mitchel — WDE7728 — position and weather

sailwx.info

Track history (hours):
 
Tides and Currents Weather Stations Pressure Air Temp Water Temp Dewpoint Dewpoint Depression Visibility Wind Speed Wind Dir Waves Ship Positions

Mitchel

Owner: AMERICAN TUGS INC., SAN JUAN, PR. More information available from US FCC via Universal Licensing System and Coast Guard Vessel Documentation Center.

Last reported at 2017-Jan-12 14:13 UTC. Time now 2017-Jan-16 17:20 UTC.
Position N 15°28' W 061°41'.

Length 27 m; draft 3.6 m.

Type: Tug. MMSI: 367346890.

Date/timePositionNaut miles runAvg speedWind from/ knotsBaromVisibWave heightAir tempDewpointWater temp
2017-Jan-12 14:13N 15°28' W 061°41'67 6.1
2017-Jan-12 03:23N 16°24' W 062°18'5 6.1
2017-Jan-12 02:32N 16°29' W 062°21'7 6.0
2017-Jan-12 01:22N 16°35' W 062°25'5 5.9
2017-Jan-12 00:33N 16°39' W 062°27'216 5.3
2017-Jan-10 07:31N 17°50' W 066°01'5 5.5
2017-Jan-10 06:33N 17°52' W 066°06'5 4.6
2017-Jan-10 05:33N 17°55' W 066°10'2 1.4
2017-Jan-10 04:18N 17°56' W 066°09'0 0.0
2017-Jan-10 03:12N 17°56' W 066°09'0 0.0
2017-Jan-10 02:30N 17°56' W 066°09'0 0.0
2017-Jan-10 01:30N 17°56' W 066°09'0 0.0
2017-Jan-10 00:33N 17°56' W 066°09'0 0.0
2017-Jan-09 23:33N 17°56' W 066°09'0 0.0
2017-Jan-09 22:33N 17°56' W 066°09'0 0.0
2017-Jan-09 21:33N 17°56' W 066°09'0 0.0
2017-Jan-09 20:33N 17°56' W 066°09'0 0.0
2017-Jan-09 19:33N 17°56' W 066°09'0 0.0
2017-Jan-09 18:33N 17°56' W 066°09'0 0.0
2017-Jan-09 17:33N 17°56' W 066°09'0 0.0
2017-Jan-09 16:33N 17°56' W 066°09'0 0.0
2017-Jan-09 15:33N 17°56' W 066°09'0 0.0
2017-Jan-09 14:33N 17°56' W 066°09'0 0.0
2017-Jan-09 13:33N 17°56' W 066°09'0 0.0
2017-Jan-09 12:33N 17°56' W 066°09'0 0.0
2017-Jan-09 11:33N 17°56' W 066°09'0 0.0
2017-Jan-09 10:33N 17°56' W 066°09'0 0.0
2017-Jan-09 09:33N 17°56' W 066°09'0 0.0
2017-Jan-09 08:33N 17°56' W 066°09'0 0.0
2017-Jan-09 07:33N 17°56' W 066°09'0 0.0
2017-Jan-09 06:33N 17°56' W 066°09'0 0.0
2017-Jan-09 05:33N 17°56' W 066°09'0 0.0
2017-Jan-09 04:33N 17°56' W 066°09'0 0.0
2017-Jan-09 03:33N 17°56' W 066°09'0 0.0
2017-Jan-09 02:33N 17°56' W 066°09'0 0.0
2017-Jan-09 01:33N 17°56' W 066°09'0 0.0
2017-Jan-09 00:33N 17°56' W 066°09'0 0.0
2017-Jan-08 23:33N 17°56' W 066°09'0 0.0
2017-Jan-08 22:33N 17°56' W 066°09'0 0.0
2017-Jan-08 21:33N 17°56' W 066°09'0 0.0
2017-Jan-08 20:33N 17°56' W 066°09'0 0.0
2017-Jan-08 19:33N 17°56' W 066°09'0 0.0
2017-Jan-08 18:30N 17°56' W 066°09'0 0.0
2017-Jan-08 17:33N 17°56' W 066°09'0 0.0
2017-Jan-08 16:30N 17°56' W 066°09'0 0.0
2017-Jan-08 15:33N 17°56' W 066°09'0 0.0
2017-Jan-08 14:33N 17°56' W 066°09'0 0.0
2017-Jan-08 13:30N 17°56' W 066°09'0 0.0
2017-Jan-08 12:33N 17°56' W 066°09'0 0.0
2017-Jan-08 11:33N 17°56' W 066°09'0 0.0
2017-Jan-08 10:24N 17°56' W 066°09'0 0.0
2017-Jan-08 09:33N 17°56' W 066°09'0 0.0
2017-Jan-08 08:33N 17°56' W 066°09'0 0.0
2017-Jan-08 07:30N 17°56' W 066°09'0 0.0
2017-Jan-08 06:30N 17°56' W 066°09'0 0.0
2017-Jan-08 05:30N 17°56' W 066°09'0 0.0
2017-Jan-08 04:33N 17°56' W 066°09'0 0.0
2017-Jan-08 03:33N 17°56' W 066°09'0 0.0
2017-Jan-08 02:33N 17°56' W 066°09'0 0.1
2017-Jan-08 01:33N 17°56' W 066°09'0 0.1
2017-Jan-08 00:33N 17°56' W 066°09'0 0.0
2017-Jan-07 23:30N 17°56' W 066°09'0 0.0
2017-Jan-07 22:30N 17°56' W 066°09'0 0.0
2017-Jan-07 21:33N 17°56' W 066°09'0 0.0
2017-Jan-07 20:33N 17°56' W 066°09'0 0.0
2017-Jan-07 19:30N 17°56' W 066°09'0 0.0
2017-Jan-07 18:30N 17°56' W 066°09'0 0.0
2017-Jan-07 17:24N 17°56' W 066°09'0 0.0
2017-Jan-07 16:30N 17°56' W 066°09'0 0.0
2017-Jan-07 15:30N 17°56' W 066°09'0 0.0
2017-Jan-07 14:30N 17°56' W 066°09'0 0.0
2017-Jan-07 13:33N 17°56' W 066°09'0 0.0
2017-Jan-07 12:33N 17°56' W 066°09'0 0.0
2017-Jan-07 11:30N 17°56' W 066°09'0 0.0
2017-Jan-07 10:30N 17°56' W 066°09'0 0.0
2017-Jan-07 09:33N 17°56' W 066°09'0 0.0
2017-Jan-07 08:33N 17°56' W 066°09'0 0.0
2017-Jan-07 07:33N 17°56' W 066°09'0 0.0
2017-Jan-07 06:33N 17°56' W 066°09'0 0.0
2017-Jan-07 05:33N 17°56' W 066°09'0 0.0
2017-Jan-07 04:33N 17°56' W 066°09'0 0.0
2017-Jan-07 03:33N 17°56' W 066°09'0 0.0
2017-Jan-07 02:33N 17°56' W 066°09'0 0.0
2017-Jan-07 01:33N 17°56' W 066°09'0 0.0
2017-Jan-07 00:33N 17°56' W 066°09'0 0.0
2017-Jan-06 23:33N 17°56' W 066°09'0 0.0
2017-Jan-06 22:33N 17°56' W 066°09'0 0.0
2017-Jan-06 21:30N 17°56' W 066°09'0 0.0
2017-Jan-06 20:30N 17°56' W 066°09'0 0.0
2017-Jan-06 19:30N 17°56' W 066°09'0 0.0
2017-Jan-06 18:18N 17°56' W 066°09'0 0.0
2017-Jan-06 17:30N 17°56' W 066°09'0 0.0
2017-Jan-06 16:30N 17°56' W 066°09'0 0.0
2017-Jan-06 15:30N 17°56' W 066°09'0 0.0
2017-Jan-06 14:30N 17°56' W 066°09'0 0.0
2017-Jan-06 08:30N 17°56' W 066°09'0 0.0
2017-Jan-06 07:30N 17°56' W 066°09'0 0.0
2017-Jan-06 06:33N 17°56' W 066°09'0 0.0
2017-Jan-06 05:30N 17°56' W 066°09'0 0.0
2017-Jan-06 04:30N 17°56' W 066°09'0 0.0
2017-Jan-06 02:12N 17°56' W 066°09'0 0.0
2017-Jan-06 01:30N 17°56' W 066°09'0 0.0
2017-Jan-06 00:24N 17°56' W 066°09'0 0.0
2017-Jan-05 23:30N 17°56' W 066°09'0 0.0
2017-Jan-05 22:33N 17°56' W 066°09'0 0.0
2017-Jan-05 21:18N 17°56' W 066°09'0 0.0
2017-Jan-05 20:24N 17°56' W 066°09'0 0.0
2017-Jan-05 19:30N 17°56' W 066°09'0 0.1
2017-Jan-05 18:30N 17°56' W 066°09'0 0.0
2017-Jan-05 17:30N 17°56' W 066°09'0 0.0
2017-Jan-05 16:24N 17°56' W 066°09'0 0.0
2017-Jan-05 15:30N 17°56' W 066°09'0 0.0
2017-Jan-05 14:30N 17°56' W 066°09'0 0.0
2017-Jan-05 13:30N 17°56' W 066°09'0 0.0
2017-Jan-05 12:33N 17°56' W 066°09'0 0.0
2017-Jan-05 11:33N 17°56' W 066°09'0 0.0
2017-Jan-05 10:24N 17°56' W 066°09'0 0.0
2017-Jan-05 09:30N 17°56' W 066°09'0 0.0
2017-Jan-05 08:33N 17°56' W 066°09'0 0.0
2017-Jan-05 07:33N 17°56' W 066°09'0 0.0
2017-Jan-05 06:33N 17°56' W 066°09'0 0.0
2017-Jan-05 05:33N 17°56' W 066°09'0 0.0
2017-Jan-05 04:30N 17°56' W 066°09'0 0.0
2017-Jan-05 03:33N 17°56' W 066°09'0 0.0
2017-Jan-05 02:33N 17°56' W 066°09'0 0.0
2017-Jan-05 01:30N 17°56' W 066°09'0 0.0
2017-Jan-05 00:30N 17°56' W 066°09'0 0.0
2017-Jan-04 23:30N 17°56' W 066°09'0 0.0
2017-Jan-04 22:33N 17°56' W 066°09'0 0.0
2017-Jan-04 21:33N 17°56' W 066°09'0 0.0
2017-Jan-04 20:24N 17°56' W 066°09'0 0.0
2017-Jan-04 19:33N 17°56' W 066°09'0 0.0
2017-Jan-04 18:33N 17°56' W 066°09'0 0.0
2017-Jan-04 17:33N 17°56' W 066°09'0 0.0
2017-Jan-04 16:33N 17°56' W 066°09'0 0.0
2017-Jan-04 15:33N 17°56' W 066°09'0 0.0
2017-Jan-04 14:27N 17°56' W 066°09'0 0.0
2017-Jan-04 13:30N 17°56' W 066°09'0 0.0
2017-Jan-04 12:33N 17°56' W 066°09'0 0.0
2017-Jan-04 11:33N 17°56' W 066°09'0 0.0
2017-Jan-04 10:33N 17°56' W 066°09'0 0.0
2017-Jan-04 09:33N 17°56' W 066°09'0 0.0
2017-Jan-04 08:33N 17°56' W 066°09'0 0.0
2017-Jan-04 07:30N 17°56' W 066°09'0 0.0
2017-Jan-04 06:33N 17°56' W 066°09'0 0.0
2017-Jan-04 05:33N 17°56' W 066°09'0 0.0
2017-Jan-04 04:33N 17°56' W 066°09'0 0.0
2017-Jan-04 03:33N 17°56' W 066°09'0 0.0
2017-Jan-04 02:33N 17°56' W 066°09'0 0.0
2017-Jan-04 01:24N 17°56' W 066°09'0 0.0
2017-Jan-04 00:30N 17°56' W 066°09'0 0.0
2017-Jan-03 23:30N 17°56' W 066°09'0 0.0
2017-Jan-03 22:30N 17°56' W 066°09'0 0.0
2017-Jan-03 21:33N 17°56' W 066°09'0 0.0
2017-Jan-03 20:24N 17°56' W 066°09'0 0.0
2017-Jan-03 19:33N 17°56' W 066°09'0 0.0
2017-Jan-03 18:33N 17°56' W 066°09'0 0.0
2017-Jan-03 17:30N 17°56' W 066°09'0 0.0
2017-Jan-03 16:33N 17°56' W 066°09'0 0.0
2017-Jan-03 15:33N 17°56' W 066°09'0 0.0
2017-Jan-03 14:33N 17°56' W 066°09'0 0.0
2017-Jan-03 13:33N 17°56' W 066°09'0 0.0
2017-Jan-03 12:33N 17°56' W 066°09'0 0.0
2017-Jan-03 11:33N 17°56' W 066°09'0 0.0
2017-Jan-03 10:33N 17°56' W 066°09'0 0.0
2017-Jan-03 09:33N 17°56' W 066°09'0 0.0
2017-Jan-03 08:33N 17°56' W 066°09'0 0.0
2017-Jan-03 07:33N 17°56' W 066°09'0 0.0
2017-Jan-03 06:33N 17°56' W 066°09'0 0.0
2017-Jan-03 05:30N 17°56' W 066°09'0 0.0
2017-Jan-03 04:33N 17°56' W 066°09'0 0.0
2017-Jan-03 03:33N 17°56' W 066°09'0 0.0
2017-Jan-03 02:33N 17°56' W 066°09'0 0.0
2017-Jan-03 01:33N 17°56' W 066°09'0 0.0
2017-Jan-03 00:33N 17°56' W 066°09'0 0.0
2017-Jan-02 23:33N 17°56' W 066°09'0 0.0
2017-Jan-02 22:33N 17°56' W 066°09'0 0.0
2017-Jan-02 21:33N 17°56' W 066°09'0 0.0
2017-Jan-02 20:33N 17°56' W 066°09'0 0.0
2017-Jan-02 19:33N 17°56' W 066°09'0 0.0
2017-Jan-02 18:33N 17°56' W 066°09'0 0.0
2017-Jan-02 17:33N 17°56' W 066°09'0 0.0
2017-Jan-02 16:30N 17°56' W 066°09'0 0.0
2017-Jan-02 15:30N 17°56' W 066°09'0 0.0
2017-Jan-02 14:33N 17°56' W 066°09'  
Track history (hours):
 
Tides and Currents Weather Stations Pressure Air Temp Water Temp Dewpoint Dewpoint Depression Visibility Wind Speed Wind Dir Waves Ship Positions

Mitchel

Owner: AMERICAN TUGS INC., SAN JUAN, PR. More information available from US FCC via Universal Licensing System and Coast Guard Vessel Documentation Center.

Last reported at 2017-Jan-12 14:13 UTC. Time now 2017-Jan-16 17:20 UTC.
Position N 15°28' W 061°41'.

Length 27 m; draft 3.6 m.

Type: Tug. MMSI: 367346890.

Date/timePositionNaut miles runAvg speedWind from/ knotsBaromVisibWave heightAir tempDewpointWater temp
2017-Jan-12 14:13N 15°28' W 061°41'67 6.1
2017-Jan-12 03:23N 16°24' W 062°18'5 6.1
2017-Jan-12 02:32N 16°29' W 062°21'7 6.0
2017-Jan-12 01:22N 16°35' W 062°25'5 5.9
2017-Jan-12 00:33N 16°39' W 062°27'216 5.3
2017-Jan-10 07:31N 17°50' W 066°01'5 5.5
2017-Jan-10 06:33N 17°52' W 066°06'5 4.6
2017-Jan-10 05:33N 17°55' W 066°10'2 1.4
2017-Jan-10 04:18N 17°56' W 066°09'0 0.0
2017-Jan-10 03:12N 17°56' W 066°09'0 0.0
2017-Jan-10 02:30N 17°56' W 066°09'0 0.0
2017-Jan-10 01:30N 17°56' W 066°09'0 0.0
2017-Jan-10 00:33N 17°56' W 066°09'0 0.0
2017-Jan-09 23:33N 17°56' W 066°09'0 0.0
2017-Jan-09 22:33N 17°56' W 066°09'0 0.0
2017-Jan-09 21:33N 17°56' W 066°09'0 0.0
2017-Jan-09 20:33N 17°56' W 066°09'0 0.0
2017-Jan-09 19:33N 17°56' W 066°09'0 0.0
2017-Jan-09 18:33N 17°56' W 066°09'0 0.0
2017-Jan-09 17:33N 17°56' W 066°09'0 0.0
2017-Jan-09 16:33N 17°56' W 066°09'0 0.0
2017-Jan-09 15:33N 17°56' W 066°09'0 0.0
2017-Jan-09 14:33N 17°56' W 066°09'0 0.0
2017-Jan-09 13:33N 17°56' W 066°09'0 0.0
2017-Jan-09 12:33N 17°56' W 066°09'0 0.0
2017-Jan-09 11:33N 17°56' W 066°09'0 0.0
2017-Jan-09 10:33N 17°56' W 066°09'0 0.0
2017-Jan-09 09:33N 17°56' W 066°09'0 0.0
2017-Jan-09 08:33N 17°56' W 066°09'0 0.0
2017-Jan-09 07:33N 17°56' W 066°09'0 0.0
2017-Jan-09 06:33N 17°56' W 066°09'0 0.0
2017-Jan-09 05:33N 17°56' W 066°09'0 0.0
2017-Jan-09 04:33N 17°56' W 066°09'0 0.0
2017-Jan-09 03:33N 17°56' W 066°09'0 0.0
2017-Jan-09 02:33N 17°56' W 066°09'0 0.0
2017-Jan-09 01:33N 17°56' W 066°09'0 0.0
2017-Jan-09 00:33N 17°56' W 066°09'0 0.0
2017-Jan-08 23:33N 17°56' W 066°09'0 0.0
2017-Jan-08 22:33N 17°56' W 066°09'0 0.0
2017-Jan-08 21:33N 17°56' W 066°09'0 0.0
2017-Jan-08 20:33N 17°56' W 066°09'0 0.0
2017-Jan-08 19:33N 17°56' W 066°09'0 0.0
2017-Jan-08 18:30N 17°56' W 066°09'0 0.0
2017-Jan-08 17:33N 17°56' W 066°09'0 0.0
2017-Jan-08 16:30N 17°56' W 066°09'0 0.0
2017-Jan-08 15:33N 17°56' W 066°09'0 0.0
2017-Jan-08 14:33N 17°56' W 066°09'0 0.0
2017-Jan-08 13:30N 17°56' W 066°09'0 0.0
2017-Jan-08 12:33N 17°56' W 066°09'0 0.0
2017-Jan-08 11:33N 17°56' W 066°09'0 0.0
2017-Jan-08 10:24N 17°56' W 066°09'0 0.0
2017-Jan-08 09:33N 17°56' W 066°09'0 0.0
2017-Jan-08 08:33N 17°56' W 066°09'0 0.0
2017-Jan-08 07:30N 17°56' W 066°09'0 0.0
2017-Jan-08 06:30N 17°56' W 066°09'0 0.0
2017-Jan-08 05:30N 17°56' W 066°09'0 0.0
2017-Jan-08 04:33N 17°56' W 066°09'0 0.0
2017-Jan-08 03:33N 17°56' W 066°09'0 0.0
2017-Jan-08 02:33N 17°56' W 066°09'0 0.1
2017-Jan-08 01:33N 17°56' W 066°09'0 0.1
2017-Jan-08 00:33N 17°56' W 066°09'0 0.0
2017-Jan-07 23:30N 17°56' W 066°09'0 0.0
2017-Jan-07 22:30N 17°56' W 066°09'0 0.0
2017-Jan-07 21:33N 17°56' W 066°09'0 0.0
2017-Jan-07 20:33N 17°56' W 066°09'0 0.0
2017-Jan-07 19:30N 17°56' W 066°09'0 0.0
2017-Jan-07 18:30N 17°56' W 066°09'0 0.0
2017-Jan-07 17:24N 17°56' W 066°09'0 0.0
2017-Jan-07 16:30N 17°56' W 066°09'0 0.0
2017-Jan-07 15:30N 17°56' W 066°09'0 0.0
2017-Jan-07 14:30N 17°56' W 066°09'0 0.0
2017-Jan-07 13:33N 17°56' W 066°09'0 0.0
2017-Jan-07 12:33N 17°56' W 066°09'0 0.0
2017-Jan-07 11:30N 17°56' W 066°09'0 0.0
2017-Jan-07 10:30N 17°56' W 066°09'0 0.0
2017-Jan-07 09:33N 17°56' W 066°09'0 0.0
2017-Jan-07 08:33N 17°56' W 066°09'0 0.0
2017-Jan-07 07:33N 17°56' W 066°09'0 0.0
2017-Jan-07 06:33N 17°56' W 066°09'0 0.0
2017-Jan-07 05:33N 17°56' W 066°09'0 0.0
2017-Jan-07 04:33N 17°56' W 066°09'0 0.0
2017-Jan-07 03:33N 17°56' W 066°09'0 0.0
2017-Jan-07 02:33N 17°56' W 066°09'0 0.0
2017-Jan-07 01:33N 17°56' W 066°09'0 0.0
2017-Jan-07 00:33N 17°56' W 066°09'0 0.0
2017-Jan-06 23:33N 17°56' W 066°09'0 0.0
2017-Jan-06 22:33N 17°56' W 066°09'0 0.0
2017-Jan-06 21:30N 17°56' W 066°09'0 0.0
2017-Jan-06 20:30N 17°56' W 066°09'0 0.0
2017-Jan-06 19:30N 17°56' W 066°09'0 0.0
2017-Jan-06 18:18N 17°56' W 066°09'0 0.0
2017-Jan-06 17:30N 17°56' W 066°09'0 0.0
2017-Jan-06 16:30N 17°56' W 066°09'0 0.0
2017-Jan-06 15:30N 17°56' W 066°09'0 0.0
2017-Jan-06 14:30N 17°56' W 066°09'0 0.0
2017-Jan-06 08:30N 17°56' W 066°09'0 0.0
2017-Jan-06 07:30N 17°56' W 066°09'0 0.0
2017-Jan-06 06:33N 17°56' W 066°09'0 0.0
2017-Jan-06 05:30N 17°56' W 066°09'0 0.0
2017-Jan-06 04:30N 17°56' W 066°09'0 0.0
2017-Jan-06 02:12N 17°56' W 066°09'0 0.0
2017-Jan-06 01:30N 17°56' W 066°09'0 0.0
2017-Jan-06 00:24N 17°56' W 066°09'0 0.0
2017-Jan-05 23:30N 17°56' W 066°09'0 0.0
2017-Jan-05 22:33N 17°56' W 066°09'0 0.0
2017-Jan-05 21:18N 17°56' W 066°09'0 0.0
2017-Jan-05 20:24N 17°56' W 066°09'0 0.0
2017-Jan-05 19:30N 17°56' W 066°09'0 0.1
2017-Jan-05 18:30N 17°56' W 066°09'0 0.0
2017-Jan-05 17:30N 17°56' W 066°09'0 0.0
2017-Jan-05 16:24N 17°56' W 066°09'0 0.0
2017-Jan-05 15:30N 17°56' W 066°09'0 0.0
2017-Jan-05 14:30N 17°56' W 066°09'0 0.0
2017-Jan-05 13:30N 17°56' W 066°09'0 0.0
2017-Jan-05 12:33N 17°56' W 066°09'0 0.0
2017-Jan-05 11:33N 17°56' W 066°09'0 0.0
2017-Jan-05 10:24N 17°56' W 066°09'0 0.0
2017-Jan-05 09:30N 17°56' W 066°09'0 0.0
2017-Jan-05 08:33N 17°56' W 066°09'0 0.0
2017-Jan-05 07:33N 17°56' W 066°09'0 0.0
2017-Jan-05 06:33N 17°56' W 066°09'0 0.0
2017-Jan-05 05:33N 17°56' W 066°09'0 0.0
2017-Jan-05 04:30N 17°56' W 066°09'0 0.0
2017-Jan-05 03:33N 17°56' W 066°09'0 0.0
2017-Jan-05 02:33N 17°56' W 066°09'0 0.0
2017-Jan-05 01:30N 17°56' W 066°09'0 0.0
2017-Jan-05 00:30N 17°56' W 066°09'0 0.0
2017-Jan-04 23:30N 17°56' W 066°09'0 0.0
2017-Jan-04 22:33N 17°56' W 066°09'0 0.0
2017-Jan-04 21:33N 17°56' W 066°09'0 0.0
2017-Jan-04 20:24N 17°56' W 066°09'0 0.0
2017-Jan-04 19:33N 17°56' W 066°09'0 0.0
2017-Jan-04 18:33N 17°56' W 066°09'0 0.0
2017-Jan-04 17:33N 17°56' W 066°09'0 0.0
2017-Jan-04 16:33N 17°56' W 066°09'0 0.0
2017-Jan-04 15:33N 17°56' W 066°09'0 0.0
2017-Jan-04 14:27N 17°56' W 066°09'0 0.0
2017-Jan-04 13:30N 17°56' W 066°09'0 0.0
2017-Jan-04 12:33N 17°56' W 066°09'0 0.0
2017-Jan-04 11:33N 17°56' W 066°09'0 0.0
2017-Jan-04 10:33N 17°56' W 066°09'0 0.0
2017-Jan-04 09:33N 17°56' W 066°09'0 0.0
2017-Jan-04 08:33N 17°56' W 066°09'0 0.0
2017-Jan-04 07:30N 17°56' W 066°09'0 0.0
2017-Jan-04 06:33N 17°56' W 066°09'0 0.0
2017-Jan-04 05:33N 17°56' W 066°09'0 0.0
2017-Jan-04 04:33N 17°56' W 066°09'0 0.0
2017-Jan-04 03:33N 17°56' W 066°09'0 0.0
2017-Jan-04 02:33N 17°56' W 066°09'0 0.0
2017-Jan-04 01:24N 17°56' W 066°09'0 0.0
2017-Jan-04 00:30N 17°56' W 066°09'0 0.0
2017-Jan-03 23:30N 17°56' W 066°09'0 0.0
2017-Jan-03 22:30N 17°56' W 066°09'0 0.0
2017-Jan-03 21:33N 17°56' W 066°09'0 0.0
2017-Jan-03 20:24N 17°56' W 066°09'0 0.0
2017-Jan-03 19:33N 17°56' W 066°09'0 0.0
2017-Jan-03 18:33N 17°56' W 066°09'0 0.0
2017-Jan-03 17:30N 17°56' W 066°09'0 0.0
2017-Jan-03 16:33N 17°56' W 066°09'0 0.0
2017-Jan-03 15:33N 17°56' W 066°09'0 0.0
2017-Jan-03 14:33N 17°56' W 066°09'0 0.0
2017-Jan-03 13:33N 17°56' W 066°09'0 0.0
2017-Jan-03 12:33N 17°56' W 066°09'0 0.0
2017-Jan-03 11:33N 17°56' W 066°09'0 0.0
2017-Jan-03 10:33N 17°56' W 066°09'0 0.0
2017-Jan-03 09:33N 17°56' W 066°09'0 0.0
2017-Jan-03 08:33N 17°56' W 066°09'0 0.0
2017-Jan-03 07:33N 17°56' W 066°09'0 0.0
2017-Jan-03 06:33N 17°56' W 066°09'0 0.0
2017-Jan-03 05:30N 17°56' W 066°09'0 0.0
2017-Jan-03 04:33N 17°56' W 066°09'0 0.0
2017-Jan-03 03:33N 17°56' W 066°09'0 0.0
2017-Jan-03 02:33N 17°56' W 066°09'0 0.0
2017-Jan-03 01:33N 17°56' W 066°09'0 0.0
2017-Jan-03 00:33N 17°56' W 066°09'0 0.0
2017-Jan-02 23:33N 17°56' W 066°09'0 0.0
2017-Jan-02 22:33N 17°56' W 066°09'0 0.0
2017-Jan-02 21:33N 17°56' W 066°09'0 0.0
2017-Jan-02 20:33N 17°56' W 066°09'0 0.0
2017-Jan-02 19:33N 17°56' W 066°09'0 0.0
2017-Jan-02 18:33N 17°56' W 066°09'0 0.0
2017-Jan-02 17:33N 17°56' W 066°09'0 0.0
2017-Jan-02 16:30N 17°56' W 066°09'0 0.0
2017-Jan-02 15:30N 17°56' W 066°09'0 0.0
2017-Jan-02 14:33N 17°56' W 066°09'  

Dump ship's entire track history